Flagstar Bancorp Inc (FBC) Latest Bloomsberg Price


Mffais Ranking #1925 Overall / #31 Industry
Industry: Mortgage Finance

Number of Companies: 89 (Ranking #1780 Overall/#23 Industry)
Inflow: $ 32,154 (K) (Ranking #1527 Overall/#15 Industry)
Outflow: $ -45,088 (K)
Mffais Flow: $ -12,933 (K) (Ranking #1925 Overall/#31 Industry)


Receive a FREE weekly executive review of stocks moving into the top 10, taking the top industy spot or moving up within their industry. Sent directly to your Inbox every Saturday. Sign up today and get last week's review immediately sent to you.

We value and respect your privacy. Please read our Terms and Conditions which states our firm commitment to your privacy. Your email address will not be shared with a third party, nor will it be sold or used for purposes other than subscription for the weekly review.

Owner CPOR Shares Action Qty Chg Invested (K) Total Current Value (K)
Lord Abbett Co Llc 2016-09-30 394,900 New Holding 394,900 $ 10,591 $ 10,591
Dimensional Fund Advisors Lp 2016-09-30 2,494,405 Added More 170,547 $ 4,574 $ 66,899
Systematic Financial Management Lp 2016-09-30 65,185 New Holding 65,185 $ 1,748 $ 1,748
Emerald Acquisition Ltd 2016-09-30 52,619 New Holding 52,619 $ 1,411 $ 1,411
Interval Partners Lp 2016-09-30 51,123 New Holding 51,123 $ 1,371 $ 1,371
Cornerstone Capital Management Holdings Llc 2016-09-30 131,398 Added More 49,300 $ 1,322 $ 3,524
Chartwell Investment Partners Llc 2016-09-30 42,000 New Holding 42,000 $ 1,126 $ 1,126
Panagora Asset Management Inc 2016-09-30 45,805 Added More 37,728 $ 1,011 $ 1,228
Jacobs Levy Equity Management Inc 2016-09-30 46,402 Added More 34,702 $ 930 $ 1,244
Secor Capital Advisors Lp 2016-09-30 30,254 New Holding 30,254 $ 811 $ 811
Nationwide Fund Advisors 2016-09-30 272,420 Added More 26,832 $ 719 $ 7,306
Kbc Group Nv 2016-09-30 26,676 New Holding 26,676 $ 715 $ 715
Parametric Portfolio Associates Llc 2016-09-30 61,996 Added More 23,483 $ 629 $ 1,662
Bowling Portfolio Management Llc 2016-09-30 23,282 New Holding 23,282 $ 624 $ 624
Amp Capital Investors Ltd 2016-09-30 22,800 New Holding 22,800 $ 611 $ 611
Northern Trust Corp 2016-09-30 241,736 Added More 20,348 $ 545 $ 6,483
Diam Co Ltd 2016-09-30 15,267 New Holding 15,267 $ 409 $ 409
Alps Advisors Inc 2016-09-30 15,165 New Holding 15,165 $ 406 $ 406
Walleye Trading Llc 2016-09-30 19,556 Added More 13,883 $ 372 $ 524
Bogle Investment Management L P De 2016-09-30 12,691 New Holding 12,691 $ 340 $ 340
Blue Rock Advisors Llc 2016-09-30 11,826 New Holding 11,826 $ 317 $ 317
Clarivest Asset Management Llc 2016-09-30 50,629 Added More 11,800 $ 316 $ 1,357
Highbridge Capital Management Llc 2016-09-30 10,279 New Holding 10,279 $ 275 $ 275
1st Global Advisors Inc 2016-09-30 8,754 New Holding 8,754 $ 234 $ 234
Blackrock Inc 2016-09-30 39,208 Added More 7,503 $ 201 $ 1,051
Zebra Capital Management Llc 2016-09-30 46,917 Added More 6,854 $ 183 $ 1,258
Sg Americas Securities Llc 2016-09-30 4,179 New Holding 4,179 $ 112 $ 112
Livforsakringsbolaget Skandia Omsesidigt 2016-09-30 13,800 Added More 2,700 $ 72 $ 370
Invictus Rg 2016-09-30 1,275 New Holding 1,275 $ 34 $ 34
Advisors Asset Management Inc 2016-09-30 2,336 Added More 1,257 $ 33 $ 62
Cornercap Investment Counsel Inc 2016-09-30 61,580 Added More 955 $ 25 $ 1,651
Meeder Asset Management Inc 2016-09-30 713 New Holding 713 $ 19 $ 19
Blackrock Japan Co Ltd 2016-09-30 2,533 Added More 634 $ 17 $ 67
Cutler Group Lp 2016-09-30 500 New Holding 500 $ 13 $ 13
Rhumbline Advisers 2016-09-30 26,182 Added More 350 $ 9 $ 702
California State Teachers Retirement System 2016-09-30 44,185 Added More 300 $ 8 $ 1,185
Msi Financial Services Inc 2016-09-30 202 Added More 169 $ 4 $ 5
Springbok Capital Management Llc 2016-09-30 3,100 Added More 43 $ 1 $ 83
American International Group Inc 2016-09-30 12,066 Added More 18 $ 0 $ 323
C M Bidwell Associates Ltd 2016-09-30 7,305 No Change 0 $ 0 $ 195
New York State Common Retirement Fund 2016-09-30 21,500 No Change 0 $ 0 $ 576
Banc Funds Co Llc 2016-09-30 133,900 No Change 0 $ 0 $ 3,591
Rbf Capital Llc 2016-09-30 15,000 No Change 0 $ 0 $ 402
Weaver C Barksdale Associates Inc 2016-09-30 207 No Change 0 $ 0 $ 5
Zurcher Kantonalbank Zurich Cantonalbank 2016-09-30 583 No Change 0 $ 0 $ 15
Mp Thrift Global Advisers Iii Llc 2016-09-30 35,600,352 No Change 0 $ 0 $ 954,801
Qs Investors Llc 2016-09-30 27 No Change 0 $ 0 $ 0
Ifp Advisors Inc 2016-09-30 40 No Change 0 $ 0 $ 1
Advisor Group Inc 2016-09-30 4 No Change 0 $ 0 $ 0
Sterling Capital Management Llc 2016-09-30 35,647 Sold Some -58 $ -1 $ 956
Blair William Co Il 2016-09-30 88,730 Sold Some -100 $ -2 $ 2,379
New Century Investment Management Inc 2016-09-30 44,014 Sold Some -106 $ -2 $ 1,180
Pnc Financial Services Group Inc 2016-09-30 0 Sold All -149 $ -3 $ 0
Adirondack Trust Co 2016-09-30 0 Sold All -200 $ -5 $ 0
Ladenburg Thalmann Financial Services Inc 2016-09-30 821 Sold Some -207 $ -5 $ 22
Blackrock Investment Management Llc 2016-09-30 86,013 Sold Some -345 $ -9 $ 2,306
Creative Planning 2016-09-30 85 Sold Some -501 $ -13 $ 2
Legal General Group Plc 2016-09-30 3,350 Sold Some -535 $ -14 $ 89
Piermont Capital Management Inc 2016-09-30 71,094 Sold Some -670 $ -17 $ 1,906
Thompson Investment Management Inc 2016-09-30 16,250 Sold Some -700 $ -18 $ 435
Teachers Advisors Inc 2016-09-30 30,595 Sold Some -701 $ -18 $ 820
Axa 2016-09-30 21,300 Sold Some -1,700 $ -45 $ 571
Brandywine Global Investment Management Llc 2016-09-30 452,700 Sold Some -2,149 $ -57 $ 12,141
Swiss National Bank 2016-09-30 40,100 Sold Some -2,200 $ -59 $ 1,075
Sei Investments Co 2016-09-30 0 Sold All -3,135 $ -84 $ 0
Teacher Retirement System Of Texas 2016-09-30 0 Sold All -3,158 $ -84 $ 0
Gsa Capital Partners Llp 2016-09-30 58,100 Sold Some -3,384 $ -90 $ 1,558
Strs Ohio 2016-09-30 26,600 Sold Some -3,700 $ -99 $ 713
Oshaughnessy Asset Management Llc 2016-09-30 67,262 Sold Some -4,095 $ -109 $ 1,803
First Mercantile Trust Co 2016-09-30 0 Sold All -4,100 $ -109 $ 0
Opus Capital Group Llc 2016-09-30 208,347 Sold Some -4,301 $ -115 $ 5,587
Martingale Asset Management L P 2016-09-30 45,912 Sold Some -4,684 $ -125 $ 1,231
Tower Research Capital Llc Trc 2016-09-30 400 Sold Some -4,815 $ -129 $ 10
Guggenheim Capital Llc 2016-09-30 38,594 Sold Some -9,039 $ -242 $ 1,035
Oberweis Asset Management Inc 2016-09-30 0 Sold All -9,700 $ -260 $ 0
Columbia Partners L L C Investment Management 2016-09-30 84,761 Sold Some -10,035 $ -269 $ 2,273
Deere Co 2016-09-30 27,997 Sold Some -10,491 $ -281 $ 750
Dynamic Technology Lab Private Ltd 2016-09-30 0 Sold All -11,449 $ -307 $ 0
Tudor Investment Corp Et Al 2016-09-30 0 Sold All -13,005 $ -348 $ 0
Airain Ltd 2016-09-30 0 Sold All -16,312 $ -437 $ 0
Menta Capital Llc 2016-09-30 0 Sold All -30,270 $ -811 $ 0
A R T Advisors Llc 2016-09-30 0 Sold All -34,170 $ -916 $ 0
Peak6 Investments L P 2016-09-30 0 Sold All -34,592 $ -927 $ 0
Spot Trading L L C 2016-09-30 0 Sold All -59,600 $ -1,598 $ 0
Convergence Investment Partners Llc 2016-09-30 0 Sold All -113,224 $ -3,036 $ 0
Putnam Investments Llc 2016-09-30 131,630 Sold Some -158,867 $ -4,260 $ 3,530
Seawolf Capital Llc 2016-09-30 0 Sold All -299,236 $ -8,025 $ 0
Kingdon Capital Management L L C 2016-09-30 0 Sold All -337,873 $ -9,061 $ 0
Schneider Capital Management Corp 2016-09-30 187,104 Sold Some -487,584 $ -13,077 $ 5,018